sensor_id;sensor_type;location;lat;lon;timestamp;P1;durP1;ratioP1;P2;durP2;ratioP2
37781;SDS011;23621;50.878;4.584;2023-03-01T00:02:22;13.43;;;10.60;;
37781;SDS011;23621;50.878;4.584;2023-03-01T00:05:07;14.88;;;11.70;;
37781;SDS011;23621;50.878;4.584;2023-03-01T00:07:34;15.98;;;12.10;;
37781;SDS011;23621;50.878;4.584;2023-03-01T00:10:02;14.13;;;10.95;;
37781;SDS011;23621;50.878;4.584;2023-03-01T00:12:31;15.95;;;12.10;;
37781;SDS011;23621;50.878;4.584;2023-03-01T00:14:58;15.50;;;11.38;;
37781;SDS011;23621;50.878;4.584;2023-03-01T00:17:27;17.20;;;11.95;;
37781;SDS011;23621;50.878;4.584;2023-03-01T00:20:13;14.95;;;11.35;;
37781;SDS011;23621;50.878;4.584;2023-03-01T00:22:40;12.75;;;11.23;;
37781;SDS011;23621;50.878;4.584;2023-03-01T00:25:07;15.80;;;10.95;;
37781;SDS011;23621;50.878;4.584;2023-03-01T00:27:34;14.55;;;11.68;;
37781;SDS011;23621;50.878;4.584;2023-03-01T00:30:01;13.88;;;11.05;;
37781;SDS011;23621;50.878;4.584;2023-03-01T00:32:29;14.60;;;11.82;;
37781;SDS011;23621;50.878;4.584;2023-03-01T00:34:56;15.63;;;11.63;;
37781;SDS011;23621;50.878;4.584;2023-03-01T00:37:31;14.20;;;11.07;;
37781;SDS011;23621;50.878;4.584;2023-03-01T00:39:58;14.50;;;11.02;;
37781;SDS011;23621;50.878;4.584;2023-03-01T00:42:28;15.77;;;11.88;;
37781;SDS011;23621;50.878;4.584;2023-03-01T00:44:58;13.02;;;11.38;;
37781;SDS011;23621;50.878;4.584;2023-03-01T00:47:44;14.38;;;11.75;;
37781;SDS011;23621;50.878;4.584;2023-03-01T00:50:11;14.38;;;11.65;;
37781;SDS011;23621;50.878;4.584;2023-03-01T00:52:38;12.90;;;11.20;;
37781;SDS011;23621;50.878;4.584;2023-03-01T00:55:08;14.88;;;11.25;;
37781;SDS011;23621;50.878;4.584;2023-03-01T00:57:35;15.73;;;11.07;;
37781;SDS011;23621;50.878;4.584;2023-03-01T01:00:05;14.95;;;11.25;;
37781;SDS011;23621;50.878;4.584;2023-03-01T01:02:33;16.73;;;11.77;;
37781;SDS011;23621;50.878;4.584;2023-03-01T01:05:00;14.90;;;11.43;;
37781;SDS011;23621;50.878;4.584;2023-03-01T01:07:27;12.90;;;10.75;;
37781;SDS011;23621;50.878;4.584;2023-03-01T01:09:54;14.38;;;11.65;;
37781;SDS011;23621;50.878;4.584;2023-03-01T01:12:21;13.27;;;10.93;;
37781;SDS011;23621;50.878;4.584;2023-03-01T01:14:51;13.90;;;11.35;;
37781;SDS011;23621;50.878;4.584;2023-03-01T01:17:30;13.27;;;10.75;;
37781;SDS011;23621;50.878;4.584;2023-03-01T01:19:57;15.10;;;11.57;;
37781;SDS011;23621;50.878;4.584;2023-03-01T01:22:24;14.45;;;12.38;;
37781;SDS011;23621;50.878;4.584;2023-03-01T01:25:09;12.60;;;10.57;;
37781;SDS011;23621;50.878;4.584;2023-03-01T01:27:36;13.30;;;10.70;;
37781;SDS011;23621;50.878;4.584;2023-03-01T01:30:04;15.20;;;11.68;;
37781;SDS011;23621;50.878;4.584;2023-03-01T01:32:31;14.60;;;11.52;;
37781;SDS011;23621;50.878;4.584;2023-03-01T01:34:58;13.88;;;11.00;;
37781;SDS011;23621;50.878;4.584;2023-03-01T01:37:25;15.30;;;11.68;;
37781;SDS011;23621;50.878;4.584;2023-03-01T01:40:00;13.40;;;11.25;;
37781;SDS011;23621;50.878;4.584;2023-03-01T01:42:30;13.35;;;11.57;;
37781;SDS011;23621;50.878;4.584;2023-03-01T01:47:52;14.93;;;11.50;;
37781;SDS011;23621;50.878;4.584;2023-03-01T01:50:23;13.52;;;11.18;;
37781;SDS011;23621;50.878;4.584;2023-03-01T01:52:56;13.73;;;11.38;;
37781;SDS011;23621;50.878;4.584;2023-03-01T01:55:24;12.88;;;11.05;;
37781;SDS011;23621;50.878;4.584;2023-03-01T01:57:58;15.20;;;11.73;;
37781;SDS011;23621;50.878;4.584;2023-03-01T02:00:47;14.82;;;10.65;;
37781;SDS011;23621;50.878;4.584;2023-03-01T02:03:17;14.38;;;10.68;;
37781;SDS011;23621;50.878;4.584;2023-03-01T02:06:26;13.05;;;10.90;;
37781;SDS011;23621;50.878;4.584;2023-03-01T02:08:57;14.50;;;10.85;;
37781;SDS011;23621;50.878;4.584;2023-03-01T02:11:44;13.93;;;11.20;;
37781;SDS011;23621;50.878;4.584;2023-03-01T02:14:14;15.80;;;11.55;;
37781;SDS011;23621;50.878;4.584;2023-03-01T02:16:41;13.13;;;11.18;;
37781;SDS011;23621;50.878;4.584;2023-03-01T02:19:10;15.73;;;11.52;;
37781;SDS011;23621;50.878;4.584;2023-03-01T02:24:56;14.23;;;11.40;;
37781;SDS011;23621;50.878;4.584;2023-03-01T02:30:20;12.60;;;10.25;;
37781;SDS011;23621;50.878;4.584;2023-03-01T02:32:48;14.48;;;11.80;;
37781;SDS011;23621;50.878;4.584;2023-03-01T02:35:20;13.60;;;10.90;;
37781;SDS011;23621;50.878;4.584;2023-03-01T02:37:48;14.85;;;11.75;;
37781;SDS011;23621;50.878;4.584;2023-03-01T02:40:18;12.30;;;10.95;;
37781;SDS011;23621;50.878;4.584;2023-03-01T02:42:51;12.63;;;10.88;;
37781;SDS011;23621;50.878;4.584;2023-03-01T02:45:22;12.90;;;10.45;;
37781;SDS011;23621;50.878;4.584;2023-03-01T02:48:07;13.73;;;10.82;;
37781;SDS011;23621;50.878;4.584;2023-03-01T02:50:46;14.43;;;11.10;;
37781;SDS011;23621;50.878;4.584;2023-03-01T02:53:48;14.90;;;10.75;;
37781;SDS011;23621;50.878;4.584;2023-03-01T02:56:15;13.65;;;10.35;;
37781;SDS011;23621;50.878;4.584;2023-03-01T02:58:43;12.48;;;10.55;;
37781;SDS011;23621;50.878;4.584;2023-03-01T03:01:18;14.68;;;11.30;;
37781;SDS011;23621;50.878;4.584;2023-03-01T03:03:46;11.90;;;10.57;;
37781;SDS011;23621;50.878;4.584;2023-03-01T03:06:13;10.85;;;9.60;;
37781;SDS011;23621;50.878;4.584;2023-03-01T03:08:40;13.07;;;10.15;;
37781;SDS011;23621;50.878;4.584;2023-03-01T03:11:07;11.25;;;10.07;;
37781;SDS011;23621;50.878;4.584;2023-03-01T03:13:34;14.35;;;10.32;;
37781;SDS011;23621;50.878;4.584;2023-03-01T03:16:01;16.80;;;11.23;;
37781;SDS011;23621;50.878;4.584;2023-03-01T03:18:29;15.18;;;10.90;;
37781;SDS011;23621;50.878;4.584;2023-03-01T03:20:56;13.25;;;11.20;;
37781;SDS011;23621;50.878;4.584;2023-03-01T03:23:23;14.27;;;11.00;;
37781;SDS011;23621;50.878;4.584;2023-03-01T03:25:50;11.40;;;10.07;;
37781;SDS011;23621;50.878;4.584;2023-03-01T03:28:18;12.00;;;10.63;;
37781;SDS011;23621;50.878;4.584;2023-03-01T03:31:05;13.73;;;10.77;;
37781;SDS011;23621;50.878;4.584;2023-03-01T03:33:35;13.52;;;10.60;;
37781;SDS011;23621;50.878;4.584;2023-03-01T03:36:02;12.77;;;10.75;;
37781;SDS011;23621;50.878;4.584;2023-03-01T03:38:36;14.35;;;11.13;;
37781;SDS011;23621;50.878;4.584;2023-03-01T03:41:04;11.90;;;9.88;;
37781;SDS011;23621;50.878;4.584;2023-03-01T03:43:34;12.68;;;10.10;;
37781;SDS011;23621;50.878;4.584;2023-03-01T03:46:03;13.80;;;10.45;;
37781;SDS011;23621;50.878;4.584;2023-03-01T03:48:52;16.95;;;10.63;;
37781;SDS011;23621;50.878;4.584;2023-03-01T03:51:19;14.85;;;10.15;;
37781;SDS011;23621;50.878;4.584;2023-03-01T03:53:48;12.80;;;10.45;;
37781;SDS011;23621;50.878;4.584;2023-03-01T03:56:15;13.05;;;10.40;;
37781;SDS011;23621;50.878;4.584;2023-03-01T03:58:42;12.80;;;10.70;;
37781;SDS011;23621;50.878;4.584;2023-03-01T04:01:12;14.82;;;10.68;;
37781;SDS011;23621;50.878;4.584;2023-03-01T04:03:39;11.85;;;9.63;;
37781;SDS011;23621;50.878;4.584;2023-03-01T04:06:07;11.88;;;9.90;;
37781;SDS011;23621;50.878;4.584;2023-03-01T04:08:34;13.70;;;9.90;;
37781;SDS011;23621;50.878;4.584;2023-03-01T04:11:02;14.25;;;10.25;;
37781;SDS011;23621;50.878;4.584;2023-03-01T04:14:09;14.00;;;10.07;;
37781;SDS011;23621;50.878;4.584;2023-03-01T04:16:36;12.75;;;10.07;;
37781;SDS011;23621;50.878;4.584;2023-03-01T04:19:03;11.02;;;9.38;;
37781;SDS011;23621;50.878;4.584;2023-03-01T04:21:32;12.02;;;9.70;;
37781;SDS011;23621;50.878;4.584;2023-03-01T04:23:59;13.27;;;10.55;;
37781;SDS011;23621;50.878;4.584;2023-03-01T04:26:26;11.68;;;9.52;;
37781;SDS011;23621;50.878;4.584;2023-03-01T04:28:53;12.30;;;10.20;;
37781;SDS011;23621;50.878;4.584;2023-03-01T04:31:21;13.05;;;10.02;;
37781;SDS011;23621;50.878;4.584;2023-03-01T04:33:49;11.35;;;9.40;;
37781;SDS011;23621;50.878;4.584;2023-03-01T04:36:19;11.52;;;9.35;;
37781;SDS011;23621;50.878;4.584;2023-03-01T04:38:48;13.27;;;9.50;;
37781;SDS011;23621;50.878;4.584;2023-03-01T04:41:18;13.13;;;9.55;;
37781;SDS011;23621;50.878;4.584;2023-03-01T04:43:46;13.23;;;9.40;;
37781;SDS011;23621;50.878;4.584;2023-03-01T04:46:16;12.55;;;9.25;;
37781;SDS011;23621;50.878;4.584;2023-03-01T04:48:45;10.80;;;9.60;;
37781;SDS011;23621;50.878;4.584;2023-03-01T04:51:13;11.82;;;10.25;;
37781;SDS011;23621;50.878;4.584;2023-03-01T04:53:42;14.02;;;9.90;;
37781;SDS011;23621;50.878;4.584;2023-03-01T04:56:09;12.45;;;9.90;;
37781;SDS011;23621;50.878;4.584;2023-03-01T04:58:37;12.35;;;9.82;;
37781;SDS011;23621;50.878;4.584;2023-03-01T05:01:14;16.65;;;10.43;;
37781;SDS011;23621;50.878;4.584;2023-03-01T05:04:01;12.45;;;10.13;;
37781;SDS011;23621;50.878;4.584;2023-03-01T05:06:29;12.00;;;9.98;;
37781;SDS011;23621;50.878;4.584;2023-03-01T05:08:57;12.40;;;9.77;;
37781;SDS011;23621;50.878;4.584;2023-03-01T05:11:24;13.73;;;9.95;;
37781;SDS011;23621;50.878;4.584;2023-03-01T05:13:51;11.27;;;9.43;;
37781;SDS011;23621;50.878;4.584;2023-03-01T05:16:21;12.27;;;9.38;;
37781;SDS011;23621;50.878;4.584;2023-03-01T05:18:48;14.32;;;9.93;;
37781;SDS011;23621;50.878;4.584;2023-03-01T05:21:16;13.13;;;9.95;;
37781;SDS011;23621;50.878;4.584;2023-03-01T05:23:44;13.38;;;9.88;;
37781;SDS011;23621;50.878;4.584;2023-03-01T05:26:16;11.65;;;10.13;;
37781;SDS011;23621;50.878;4.584;2023-03-01T05:28:54;12.35;;;10.10;;
37781;SDS011;23621;50.878;4.584;2023-03-01T05:31:25;12.18;;;9.60;;
37781;SDS011;23621;50.878;4.584;2023-03-01T05:33:53;12.25;;;9.93;;
37781;SDS011;23621;50.878;4.584;2023-03-01T05:36:38;12.45;;;9.60;;
37781;SDS011;23621;50.878;4.584;2023-03-01T05:39:05;10.85;;;9.70;;
37781;SDS011;23621;50.878;4.584;2023-03-01T05:41:35;11.80;;;9.95;;
37781;SDS011;23621;50.878;4.584;2023-03-01T05:44:20;14.75;;;9.68;;
37781;SDS011;23621;50.878;4.584;2023-03-01T05:46:47;10.32;;;9.23;;
37781;SDS011;23621;50.878;4.584;2023-03-01T05:49:15;13.27;;;10.05;;
37781;SDS011;23621;50.878;4.584;2023-03-01T05:51:49;14.70;;;10.50;;
37781;SDS011;23621;50.878;4.584;2023-03-01T05:54:18;15.00;;;10.38;;
37781;SDS011;23621;50.878;4.584;2023-03-01T05:56:46;14.05;;;10.43;;
37781;SDS011;23621;50.878;4.584;2023-03-01T05:59:13;12.90;;;9.68;;
37781;SDS011;23621;50.878;4.584;2023-03-01T06:01:42;13.75;;;10.63;;
37781;SDS011;23621;50.878;4.584;2023-03-01T06:04:10;14.77;;;9.45;;
37781;SDS011;23621;50.878;4.584;2023-03-01T06:06:37;12.77;;;9.73;;
37781;SDS011;23621;50.878;4.584;2023-03-01T06:09:05;15.57;;;11.00;;
37781;SDS011;23621;50.878;4.584;2023-03-01T06:11:35;11.10;;;9.35;;
37781;SDS011;23621;50.878;4.584;2023-03-01T06:14:05;13.45;;;9.30;;
37781;SDS011;23621;50.878;4.584;2023-03-01T06:16:52;13.90;;;9.77;;
37781;SDS011;23621;50.878;4.584;2023-03-01T06:19:19;13.63;;;9.27;;
37781;SDS011;23621;50.878;4.584;2023-03-01T06:21:47;12.25;;;9.77;;
37781;SDS011;23621;50.878;4.584;2023-03-01T06:24:13;13.88;;;10.15;;
37781;SDS011;23621;50.878;4.584;2023-03-01T06:26:53;12.70;;;9.80;;
37781;SDS011;23621;50.878;4.584;2023-03-01T06:29:20;12.18;;;9.85;;
37781;SDS011;23621;50.878;4.584;2023-03-01T06:31:47;12.70;;;10.02;;
37781;SDS011;23621;50.878;4.584;2023-03-01T06:34:14;12.27;;;10.00;;
37781;SDS011;23621;50.878;4.584;2023-03-01T06:36:59;15.50;;;9.85;;
37781;SDS011;23621;50.878;4.584;2023-03-01T06:39:28;13.27;;;9.75;;
37781;SDS011;23621;50.878;4.584;2023-03-01T06:41:56;12.18;;;10.15;;
37781;SDS011;23621;50.878;4.584;2023-03-01T06:44:25;17.02;;;9.85;;
37781;SDS011;23621;50.878;4.584;2023-03-01T06:46:52;17.00;;;9.02;;
37781;SDS011;23621;50.878;4.584;2023-03-01T06:49:19;14.18;;;10.10;;
37781;SDS011;23621;50.878;4.584;2023-03-01T06:51:47;12.77;;;9.68;;
37781;SDS011;23621;50.878;4.584;2023-03-01T06:54:14;15.57;;;10.10;;
37781;SDS011;23621;50.878;4.584;2023-03-01T06:56:41;13.85;;;10.27;;
37781;SDS011;23621;50.878;4.584;2023-03-01T06:59:08;12.35;;;9.32;;
37781;SDS011;23621;50.878;4.584;2023-03-01T07:01:35;12.98;;;9.60;;
37781;SDS011;23621;50.878;4.584;2023-03-01T07:04:02;12.40;;;10.02;;
37781;SDS011;23621;50.878;4.584;2023-03-01T07:06:29;13.63;;;10.52;;
37781;SDS011;23621;50.878;4.584;2023-03-01T07:08:57;14.95;;;10.00;;
37781;SDS011;23621;50.878;4.584;2023-03-01T07:11:24;14.80;;;10.32;;
37781;SDS011;23621;50.878;4.584;2023-03-01T07:13:51;13.95;;;10.07;;
37781;SDS011;23621;50.878;4.584;2023-03-01T07:16:18;13.48;;;10.23;;
37781;SDS011;23621;50.878;4.584;2023-03-01T07:18:46;16.70;;;9.82;;
37781;SDS011;23621;50.878;4.584;2023-03-01T07:21:32;15.77;;;10.05;;
37781;SDS011;23621;50.878;4.584;2023-03-01T07:23:59;16.20;;;9.77;;
37781;SDS011;23621;50.878;4.584;2023-03-01T07:26:32;14.38;;;10.15;;
37781;SDS011;23621;50.878;4.584;2023-03-01T07:28:59;12.13;;;9.38;;
37781;SDS011;23621;50.878;4.584;2023-03-01T07:31:45;13.55;;;9.57;;
37781;SDS011;23621;50.878;4.584;2023-03-01T07:34:12;13.95;;;10.43;;
37781;SDS011;23621;50.878;4.584;2023-03-01T07:36:41;12.75;;;9.95;;
37781;SDS011;23621;50.878;4.584;2023-03-01T07:39:09;16.27;;;12.05;;
37781;SDS011;23621;50.878;4.584;2023-03-01T07:41:37;18.63;;;14.00;;
37781;SDS011;23621;50.878;4.584;2023-03-01T07:44:07;24.45;;;15.73;;
37781;SDS011;23621;50.878;4.584;2023-03-01T07:46:34;26.80;;;17.83;;
37781;SDS011;23621;50.878;4.584;2023-03-01T07:49:01;31.13;;;18.23;;
37781;SDS011;23621;50.878;4.584;2023-03-01T07:51:46;23.13;;;13.98;;
37781;SDS011;23621;50.878;4.584;2023-03-01T07:54:13;16.17;;;11.43;;
37781;SDS011;23621;50.878;4.584;2023-03-01T07:56:39;16.05;;;11.20;;
37781;SDS011;23621;50.878;4.584;2023-03-01T07:59:09;13.18;;;11.35;;
37781;SDS011;23621;50.878;4.584;2023-03-01T08:01:36;13.40;;;10.60;;
37781;SDS011;23621;50.878;4.584;2023-03-01T08:04:03;15.15;;;10.68;;
37781;SDS011;23621;50.878;4.584;2023-03-01T08:06:33;14.52;;;10.50;;
37781;SDS011;23621;50.878;4.584;2023-03-01T08:09:01;11.55;;;9.73;;
37781;SDS011;23621;50.878;4.584;2023-03-01T08:11:28;14.07;;;10.27;;
37781;SDS011;23621;50.878;4.584;2023-03-01T08:13:55;12.38;;;9.95;;
37781;SDS011;23621;50.878;4.584;2023-03-01T08:16:42;12.95;;;10.05;;
37781;SDS011;23621;50.878;4.584;2023-03-01T08:19:10;12.10;;;9.95;;
37781;SDS011;23621;50.878;4.584;2023-03-01T08:21:56;15.23;;;11.02;;
37781;SDS011;23621;50.878;4.584;2023-03-01T08:24:24;15.68;;;10.18;;
37781;SDS011;23621;50.878;4.584;2023-03-01T08:27:10;12.50;;;9.68;;
37781;SDS011;23621;50.878;4.584;2023-03-01T08:29:38;13.40;;;9.95;;
37781;SDS011;23621;50.878;4.584;2023-03-01T08:32:24;14.73;;;10.30;;
37781;SDS011;23621;50.878;4.584;2023-03-01T08:34:51;15.25;;;10.48;;
37781;SDS011;23621;50.878;4.584;2023-03-01T08:37:18;12.88;;;10.35;;
37781;SDS011;23621;50.878;4.584;2023-03-01T08:39:45;13.77;;;10.77;;
37781;SDS011;23621;50.878;4.584;2023-03-01T08:42:13;14.43;;;11.07;;
37781;SDS011;23621;50.878;4.584;2023-03-01T08:44:42;13.32;;;10.85;;
37781;SDS011;23621;50.878;4.584;2023-03-01T08:47:12;12.80;;;10.55;;
37781;SDS011;23621;50.878;4.584;2023-03-01T08:49:39;14.43;;;10.45;;
37781;SDS011;23621;50.878;4.584;2023-03-01T08:52:21;13.63;;;10.32;;
37781;SDS011;23621;50.878;4.584;2023-03-01T08:54:48;17.35;;;11.85;;
37781;SDS011;23621;50.878;4.584;2023-03-01T08:57:30;16.92;;;10.70;;
37781;SDS011;23621;50.878;4.584;2023-03-01T08:59:58;19.17;;;10.80;;
37781;SDS011;23621;50.878;4.584;2023-03-01T09:02:25;16.27;;;11.23;;
37781;SDS011;23621;50.878;4.584;2023-03-01T09:04:52;15.63;;;10.57;;
37781;SDS011;23621;50.878;4.584;2023-03-01T09:07:19;16.30;;;11.93;;
37781;SDS011;23621;50.878;4.584;2023-03-01T09:09:46;12.88;;;10.65;;
37781;SDS011;23621;50.878;4.584;2023-03-01T09:12:13;13.32;;;11.15;;
37781;SDS011;23621;50.878;4.584;2023-03-01T09:14:40;13.45;;;10.43;;
37781;SDS011;23621;50.878;4.584;2023-03-01T09:17:07;15.60;;;10.98;;
37781;SDS011;23621;50.878;4.584;2023-03-01T09:19:34;13.55;;;10.95;;
37781;SDS011;23621;50.878;4.584;2023-03-01T09:22:20;15.40;;;10.85;;
37781;SDS011;23621;50.878;4.584;2023-03-01T09:24:47;14.68;;;11.10;;
37781;SDS011;23621;50.878;4.584;2023-03-01T09:27:14;13.15;;;10.73;;
37781;SDS011;23621;50.878;4.584;2023-03-01T09:29:41;15.20;;;11.25;;
37781;SDS011;23621;50.878;4.584;2023-03-01T09:32:08;15.27;;;11.30;;
37781;SDS011;23621;50.878;4.584;2023-03-01T09:34:35;15.57;;;10.55;;
37781;SDS011;23621;50.878;4.584;2023-03-01T09:37:40;14.90;;;11.55;;
37781;SDS011;23621;50.878;4.584;2023-03-01T09:40:15;14.38;;;10.55;;
37781;SDS011;23621;50.878;4.584;2023-03-01T09:42:50;12.98;;;10.65;;
37781;SDS011;23621;50.878;4.584;2023-03-01T09:45:36;15.00;;;10.25;;
37781;SDS011;23621;50.878;4.584;2023-03-01T09:48:09;15.32;;;11.05;;
37781;SDS011;23621;50.878;4.584;2023-03-01T09:50:42;15.93;;;11.80;;
37781;SDS011;23621;50.878;4.584;2023-03-01T09:53:12;15.18;;;11.40;;
37781;SDS011;23621;50.878;4.584;2023-03-01T10:01:51;13.00;;;10.30;;
37781;SDS011;23621;50.878;4.584;2023-03-01T10:04:49;13.35;;;10.45;;
37781;SDS011;23621;50.878;4.584;2023-03-01T10:07:21;13.63;;;11.10;;
37781;SDS011;23621;50.878;4.584;2023-03-01T10:09:52;14.32;;;10.98;;
37781;SDS011;23621;50.878;4.584;2023-03-01T10:12:31;16.63;;;11.20;;
37781;SDS011;23621;50.878;4.584;2023-03-01T10:17:48;16.52;;;11.75;;
37781;SDS011;23621;50.878;4.584;2023-03-01T10:20:24;15.82;;;11.80;;
37781;SDS011;23621;50.878;4.584;2023-03-01T10:22:56;14.70;;;10.93;;
37781;SDS011;23621;50.878;4.584;2023-03-01T10:31:47;13.70;;;10.73;;
37781;SDS011;23621;50.878;4.584;2023-03-01T10:34:20;13.30;;;9.98;;
37781;SDS011;23621;50.878;4.584;2023-03-01T10:39:54;12.60;;;9.90;;
37781;SDS011;23621;50.878;4.584;2023-03-01T10:42:29;13.85;;;10.35;;
37781;SDS011;23621;50.878;4.584;2023-03-01T10:45:35;13.73;;;10.50;;
37781;SDS011;23621;50.878;4.584;2023-03-01T10:48:14;11.38;;;10.18;;
37781;SDS011;23621;50.878;4.584;2023-03-01T10:50:51;14.63;;;11.05;;
37781;SDS011;23621;50.878;4.584;2023-03-01T10:53:36;14.65;;;10.10;;
37781;SDS011;23621;50.878;4.584;2023-03-01T10:56:08;13.45;;;10.45;;
37781;SDS011;23621;50.878;4.584;2023-03-01T10:58:41;14.38;;;11.18;;
37781;SDS011;23621;50.878;4.584;2023-03-01T11:01:30;15.02;;;11.50;;
37781;SDS011;23621;50.878;4.584;2023-03-01T11:06:58;14.75;;;10.93;;
37781;SDS011;23621;50.878;4.584;2023-03-01T11:09:29;15.07;;;10.90;;
37781;SDS011;23621;50.878;4.584;2023-03-01T11:12:12;13.05;;;10.05;;
37781;SDS011;23621;50.878;4.584;2023-03-01T11:14:49;11.43;;;10.23;;
37781;SDS011;23621;50.878;4.584;2023-03-01T11:20:17;11.70;;;10.02;;
37781;SDS011;23621;50.878;4.584;2023-03-01T11:23:10;13.77;;;10.60;;
37781;SDS011;23621;50.878;4.584;2023-03-01T11:25:43;12.82;;;9.57;;
37781;SDS011;23621;50.878;4.584;2023-03-01T11:28:25;14.68;;;9.52;;
37781;SDS011;23621;50.878;4.584;2023-03-01T11:31:08;13.27;;;9.23;;
37781;SDS011;23621;50.878;4.584;2023-03-01T11:33:43;12.40;;;9.30;;
37781;SDS011;23621;50.878;4.584;2023-03-01T11:36:33;11.38;;;9.13;;
37781;SDS011;23621;50.878;4.584;2023-03-01T11:44:52;11.98;;;9.65;;
37781;SDS011;23621;50.878;4.584;2023-03-01T11:50:20;13.10;;;9.45;;
37781;SDS011;23621;50.878;4.584;2023-03-01T12:03:47;10.80;;;8.85;;
37781;SDS011;23621;50.878;4.584;2023-03-01T12:15:17;10.63;;;8.63;;
37781;SDS011;23621;50.878;4.584;2023-03-01T12:37:22;11.25;;;9.20;;
37781;SDS011;23621;50.878;4.584;2023-03-01T12:45:59;13.50;;;8.90;;
37781;SDS011;23621;50.878;4.584;2023-03-01T12:51:10;11.45;;;9.07;;
37781;SDS011;23621;50.878;4.584;2023-03-01T12:53:45;8.90;;;8.00;;
37781;SDS011;23621;50.878;4.584;2023-03-01T12:56:19;10.85;;;9.02;;
37781;SDS011;23621;50.878;4.584;2023-03-01T12:59:01;9.85;;;8.25;;
37781;SDS011;23621;50.878;4.584;2023-03-01T13:01:45;9.88;;;8.05;;
37781;SDS011;23621;50.878;4.584;2023-03-01T13:09:53;10.50;;;8.30;;
37781;SDS011;23621;50.878;4.584;2023-03-01T13:15:33;11.43;;;8.55;;
37781;SDS011;23621;50.878;4.584;2023-03-01T13:18:27;10.23;;;7.95;;
37781;SDS011;23621;50.878;4.584;2023-03-01T13:20:55;9.55;;;8.52;;
37781;SDS011;23621;50.878;4.584;2023-03-01T13:23:25;11.02;;;8.27;;
37781;SDS011;23621;50.878;4.584;2023-03-01T13:26:14;10.48;;;8.75;;
37781;SDS011;23621;50.878;4.584;2023-03-01T13:39:03;9.77;;;8.35;;
37781;SDS011;23621;50.878;4.584;2023-03-01T13:50:00;9.13;;;8.15;;
37781;SDS011;23621;50.878;4.584;2023-03-01T13:52:39;12.60;;;9.38;;
37781;SDS011;23621;50.878;4.584;2023-03-01T13:58:12;12.23;;;8.80;;
37781;SDS011;23621;50.878;4.584;2023-03-01T14:00:47;13.02;;;8.60;;
37781;SDS011;23621;50.878;4.584;2023-03-01T14:03:21;11.75;;;9.15;;
37781;SDS011;23621;50.878;4.584;2023-03-01T14:06:17;10.43;;;8.65;;
37781;SDS011;23621;50.878;4.584;2023-03-01T14:08:48;11.63;;;8.75;;
37781;SDS011;23621;50.878;4.584;2023-03-01T14:19:41;12.30;;;9.55;;
37781;SDS011;23621;50.878;4.584;2023-03-01T14:22:32;10.48;;;8.27;;
37781;SDS011;23621;50.878;4.584;2023-03-01T14:25:02;8.98;;;8.07;;
37781;SDS011;23621;50.878;4.584;2023-03-01T14:27:44;9.52;;;8.40;;
37781;SDS011;23621;50.878;4.584;2023-03-01T14:30:24;9.82;;;8.20;;
37781;SDS011;23621;50.878;4.584;2023-03-01T14:35:51;9.60;;;8.15;;
37781;SDS011;23621;50.878;4.584;2023-03-01T14:41:15;9.30;;;8.13;;
37781;SDS011;23621;50.878;4.584;2023-03-01T14:43:44;8.73;;;7.78;;
37781;SDS011;23621;50.878;4.584;2023-03-01T14:46:34;11.95;;;8.60;;
37781;SDS011;23621;50.878;4.584;2023-03-01T14:49:16;9.63;;;8.40;;
37781;SDS011;23621;50.878;4.584;2023-03-01T14:51:57;10.60;;;8.52;;
37781;SDS011;23621;50.878;4.584;2023-03-01T14:54:26;10.45;;;8.75;;
37781;SDS011;23621;50.878;4.584;2023-03-01T14:56:58;9.32;;;8.40;;
37781;SDS011;23621;50.878;4.584;2023-03-01T14:59:27;9.82;;;8.65;;
37781;SDS011;23621;50.878;4.584;2023-03-01T15:01:55;10.90;;;8.82;;
37781;SDS011;23621;50.878;4.584;2023-03-01T15:04:24;9.27;;;8.27;;
37781;SDS011;23621;50.878;4.584;2023-03-01T15:06:54;10.02;;;8.50;;
37781;SDS011;23621;50.878;4.584;2023-03-01T15:09:32;13.02;;;7.95;;
37781;SDS011;23621;50.878;4.584;2023-03-01T15:14:55;11.25;;;8.30;;
37781;SDS011;23621;50.878;4.584;2023-03-01T15:17:36;12.00;;;8.60;;
37781;SDS011;23621;50.878;4.584;2023-03-01T15:20:06;11.85;;;8.10;;
37781;SDS011;23621;50.878;4.584;2023-03-01T15:22:46;9.48;;;7.68;;
37781;SDS011;23621;50.878;4.584;2023-03-01T15:25:33;9.38;;;7.88;;
37781;SDS011;23621;50.878;4.584;2023-03-01T15:28:01;8.93;;;7.35;;
37781;SDS011;23621;50.878;4.584;2023-03-01T15:30:52;8.30;;;7.50;;
37781;SDS011;23621;50.878;4.584;2023-03-01T15:36:00;8.75;;;7.10;;
37781;SDS011;23621;50.878;4.584;2023-03-01T15:41:05;8.07;;;7.28;;
37781;SDS011;23621;50.878;4.584;2023-03-01T15:43:49;11.10;;;7.50;;
37781;SDS011;23621;50.878;4.584;2023-03-01T15:46:35;8.35;;;7.22;;
37781;SDS011;23621;50.878;4.584;2023-03-01T15:49:05;7.95;;;6.90;;
37781;SDS011;23621;50.878;4.584;2023-03-01T15:51:53;11.57;;;7.63;;
37781;SDS011;23621;50.878;4.584;2023-03-01T15:54:22;7.55;;;6.75;;
37781;SDS011;23621;50.878;4.584;2023-03-01T15:56:52;13.52;;;8.02;;
37781;SDS011;23621;50.878;4.584;2023-03-01T15:59:20;13.48;;;7.32;;
37781;SDS011;23621;50.878;4.584;2023-03-01T16:01:48;9.20;;;6.95;;
37781;SDS011;23621;50.878;4.584;2023-03-01T16:04:17;7.78;;;6.57;;
37781;SDS011;23621;50.878;4.584;2023-03-01T16:06:50;7.63;;;6.50;;
37781;SDS011;23621;50.878;4.584;2023-03-01T16:09:24;7.28;;;6.38;;
37781;SDS011;23621;50.878;4.584;2023-03-01T16:11:52;8.15;;;6.60;;
37781;SDS011;23621;50.878;4.584;2023-03-01T16:14:20;9.43;;;7.25;;
37781;SDS011;23621;50.878;4.584;2023-03-01T16:16:47;8.02;;;6.53;;
37781;SDS011;23621;50.878;4.584;2023-03-01T16:19:15;7.78;;;7.05;;
37781;SDS011;23621;50.878;4.584;2023-03-01T16:21:42;9.00;;;7.22;;
37781;SDS011;23621;50.878;4.584;2023-03-01T16:24:13;10.45;;;7.72;;
37781;SDS011;23621;50.878;4.584;2023-03-01T16:26:40;9.48;;;7.15;;
37781;SDS011;23621;50.878;4.584;2023-03-01T16:29:11;8.88;;;6.85;;
37781;SDS011;23621;50.878;4.584;2023-03-01T16:31:38;6.97;;;6.20;;
37781;SDS011;23621;50.878;4.584;2023-03-01T16:34:08;7.85;;;6.47;;
37781;SDS011;23621;50.878;4.584;2023-03-01T16:36:36;8.48;;;7.25;;
37781;SDS011;23621;50.878;4.584;2023-03-01T16:39:03;7.25;;;6.53;;
37781;SDS011;23621;50.878;4.584;2023-03-01T16:41:30;6.80;;;6.10;;
37781;SDS011;23621;50.878;4.584;2023-03-01T16:43:58;9.13;;;6.93;;
37781;SDS011;23621;50.878;4.584;2023-03-01T16:46:27;8.35;;;6.65;;
37781;SDS011;23621;50.878;4.584;2023-03-01T16:48:56;8.00;;;6.57;;
37781;SDS011;23621;50.878;4.584;2023-03-01T16:51:42;7.60;;;6.38;;
37781;SDS011;23621;50.878;4.584;2023-03-01T16:54:11;7.03;;;6.32;;
37781;SDS011;23621;50.878;4.584;2023-03-01T16:56:57;8.40;;;7.25;;
37781;SDS011;23621;50.878;4.584;2023-03-01T16:59:25;10.40;;;7.18;;
37781;SDS011;23621;50.878;4.584;2023-03-01T17:01:52;8.48;;;6.93;;
37781;SDS011;23621;50.878;4.584;2023-03-01T17:04:19;8.68;;;7.55;;
37781;SDS011;23621;50.878;4.584;2023-03-01T17:06:47;8.10;;;7.30;;
37781;SDS011;23621;50.878;4.584;2023-03-01T17:09:15;8.93;;;7.20;;
37781;SDS011;23621;50.878;4.584;2023-03-01T17:11:43;9.85;;;7.70;;
37781;SDS011;23621;50.878;4.584;2023-03-01T17:14:10;8.48;;;7.55;;
37781;SDS011;23621;50.878;4.584;2023-03-01T17:16:38;8.55;;;7.53;;
37781;SDS011;23621;50.878;4.584;2023-03-01T17:19:05;9.55;;;7.75;;
37781;SDS011;23621;50.878;4.584;2023-03-01T17:21:33;8.45;;;7.60;;